sensor_id;sensor_type;location;lat;lon;timestamp;pressure;altitude;pressure_sealevel;temperature;humidity
82858;BME280;72620;47.774;9.620;2024-01-25T00:01:01;97582.72;;;9.44;91.83
82858;BME280;72620;47.774;9.620;2024-01-25T00:03:29;97582.00;;;9.42;92.46
82858;BME280;72620;47.774;9.620;2024-01-25T00:05:56;97579.66;;;9.39;92.56
82858;BME280;72620;47.774;9.620;2024-01-25T00:08:23;97576.66;;;9.34;92.63
82858;BME280;72620;47.774;9.620;2024-01-25T00:10:50;97583.38;;;9.35;92.64
82858;BME280;72620;47.774;9.620;2024-01-25T00:13:17;97583.38;;;9.35;92.64
82858;BME280;72620;47.774;9.620;2024-01-25T00:15:45;97575.94;;;9.32;92.85
82858;BME280;72620;47.774;9.620;2024-01-25T00:18:12;97575.94;;;9.32;92.85
82858;BME280;72620;47.774;9.620;2024-01-25T00:20:39;97568.69;;;9.26;92.78
82858;BME280;72620;47.774;9.620;2024-01-25T00:23:06;97561.81;;;9.27;92.48
82858;BME280;72620;47.774;9.620;2024-01-25T00:25:33;97564.38;;;9.27;92.11
82858;BME280;72620;47.774;9.620;2024-01-25T00:28:00;97564.38;;;9.27;92.11
82858;BME280;72620;47.774;9.620;2024-01-25T00:30:27;97569.13;;;9.20;92.31
82858;BME280;72620;47.774;9.620;2024-01-25T00:32:56;97567.97;;;9.24;92.19
82858;BME280;72620;47.774;9.620;2024-01-25T00:35:24;97572.28;;;9.24;92.17
82858;BME280;72620;47.774;9.620;2024-01-25T00:37:53;97578.84;;;9.28;91.73
82858;BME280;72620;47.774;9.620;2024-01-25T00:40:20;97578.84;;;9.28;91.73
82858;BME280;72620;47.774;9.620;2024-01-25T00:42:48;97568.09;;;9.23;92.02
82858;BME280;72620;47.774;9.620;2024-01-25T00:45:21;97561.00;;;9.26;91.95
82858;BME280;72620;47.774;9.620;2024-01-25T00:47:50;97566.56;;;9.20;92.28
82858;BME280;72620;47.774;9.620;2024-01-25T00:50:19;97566.56;;;9.20;92.28
82858;BME280;72620;47.774;9.620;2024-01-25T00:52:48;97571.56;;;9.22;92.49
82858;BME280;72620;47.774;9.620;2024-01-25T00:55:16;97577.53;;;9.22;91.94
82858;BME280;72620;47.774;9.620;2024-01-25T00:57:44;97577.53;;;9.22;91.94
82858;BME280;72620;47.774;9.620;2024-01-25T01:00:12;97565.03;;;9.18;92.47
82858;BME280;72620;47.774;9.620;2024-01-25T01:02:43;97565.03;;;9.18;92.47
82858;BME280;72620;47.774;9.620;2024-01-25T01:05:12;97561.19;;;9.12;92.16
82858;BME280;72620;47.774;9.620;2024-01-25T01:07:39;97548.47;;;9.11;92.11
82858;BME280;72620;47.774;9.620;2024-01-25T01:10:11;97558.03;;;9.09;92.14
82858;BME280;72620;47.774;9.620;2024-01-25T01:12:40;97574.75;;;9.02;92.60
82858;BME280;72620;47.774;9.620;2024-01-25T01:15:07;97560.53;;;8.98;92.92
82858;BME280;72620;47.774;9.620;2024-01-25T01:17:34;97559.63;;;8.99;93.08
82858;BME280;72620;47.774;9.620;2024-01-25T01:20:01;97559.63;;;8.99;93.08
82858;BME280;72620;47.774;9.620;2024-01-25T01:22:29;97571.47;;;9.00;93.09
82858;BME280;72620;47.774;9.620;2024-01-25T01:24:56;97571.47;;;9.00;93.09
82858;BME280;72620;47.774;9.620;2024-01-25T01:27:23;97555.84;;;8.92;93.07
82858;BME280;72620;47.774;9.620;2024-01-25T01:29:50;97565.88;;;8.95;92.85
82858;BME280;72620;47.774;9.620;2024-01-25T01:32:17;97562.28;;;8.97;93.02
82858;BME280;72620;47.774;9.620;2024-01-25T01:34:44;97562.28;;;8.97;93.02
82858;BME280;72620;47.774;9.620;2024-01-25T01:37:12;97548.88;;;8.94;93.04
82858;BME280;72620;47.774;9.620;2024-01-25T01:39:39;97567.63;;;8.94;93.54
82858;BME280;72620;47.774;9.620;2024-01-25T01:42:06;97579.50;;;8.95;93.36
82858;BME280;72620;47.774;9.620;2024-01-25T01:44:33;97582.25;;;8.92;93.24
82858;BME280;72620;47.774;9.620;2024-01-25T01:47:00;97582.25;;;8.92;93.24
82858;BME280;72620;47.774;9.620;2024-01-25T01:49:27;97579.00;;;8.90;93.09
82858;BME280;72620;47.774;9.620;2024-01-25T01:51:55;97576.53;;;8.89;92.90
82858;BME280;72620;47.774;9.620;2024-01-25T01:54:24;97570.41;;;8.91;92.65
82858;BME280;72620;47.774;9.620;2024-01-25T01:56:52;97570.41;;;8.91;92.65
82858;BME280;72620;47.774;9.620;2024-01-25T01:59:20;97572.47;;;8.86;93.07
82858;BME280;72620;47.774;9.620;2024-01-25T02:01:47;97557.09;;;8.86;92.89
82858;BME280;72620;47.774;9.620;2024-01-25T02:04:15;97557.09;;;8.86;92.89
82858;BME280;72620;47.774;9.620;2024-01-25T02:06:42;97562.22;;;8.86;92.91
82858;BME280;72620;47.774;9.620;2024-01-25T02:09:11;97567.13;;;8.89;92.75
82858;BME280;72620;47.774;9.620;2024-01-25T02:11:38;97568.59;;;8.81;92.88
82858;BME280;72620;47.774;9.620;2024-01-25T02:14:05;97560.31;;;8.77;93.08
82858;BME280;72620;47.774;9.620;2024-01-25T02:16:37;97558.25;;;8.82;93.07
82858;BME280;72620;47.774;9.620;2024-01-25T02:19:05;97568.59;;;8.81;92.99
82858;BME280;72620;47.774;9.620;2024-01-25T02:21:32;97571.03;;;8.82;92.57
82858;BME280;72620;47.774;9.620;2024-01-25T02:23:59;97571.03;;;8.82;92.57
82858;BME280;72620;47.774;9.620;2024-01-25T02:26:26;97554.47;;;8.75;92.59
82858;BME280;72620;47.774;9.620;2024-01-25T02:28:53;97548.44;;;8.76;92.66
82858;BME280;72620;47.774;9.620;2024-01-25T02:31:21;97551.91;;;8.75;92.62
82858;BME280;72620;47.774;9.620;2024-01-25T02:33:48;97554.91;;;8.69;92.81
82858;BME280;72620;47.774;9.620;2024-01-25T02:36:16;97545.28;;;8.72;93.28
82858;BME280;72620;47.774;9.620;2024-01-25T02:38:43;97545.28;;;8.72;93.28
82858;BME280;72620;47.774;9.620;2024-01-25T02:41:10;97542.22;;;8.67;93.01
82858;BME280;72620;47.774;9.620;2024-01-25T02:43:37;97544.88;;;8.66;92.98
82858;BME280;72620;47.774;9.620;2024-01-25T02:46:04;97541.63;;;8.64;92.96
82858;BME280;72620;47.774;9.620;2024-01-25T02:48:31;97550.00;;;8.66;92.75
82858;BME280;72620;47.774;9.620;2024-01-25T02:50:58;97552.56;;;8.66;92.44
82858;BME280;72620;47.774;9.620;2024-01-25T02:53:25;97567.72;;;8.69;92.40
82858;BME280;72620;47.774;9.620;2024-01-25T02:55:52;97567.72;;;8.69;92.40
82858;BME280;72620;47.774;9.620;2024-01-25T02:58:19;97546.94;;;8.61;92.78
82858;BME280;72620;47.774;9.620;2024-01-25T03:00:47;97544.50;;;8.59;92.15
82858;BME280;72620;47.774;9.620;2024-01-25T03:03:14;97552.56;;;8.66;92.58
82858;BME280;72620;47.774;9.620;2024-01-25T03:05:41;97545.84;;;8.65;92.59
82858;BME280;72620;47.774;9.620;2024-01-25T03:08:09;97539.78;;;8.66;92.15
82858;BME280;72620;47.774;9.620;2024-01-25T03:10:36;97543.16;;;8.66;92.73
82858;BME280;72620;47.774;9.620;2024-01-25T03:13:03;97543.16;;;8.66;92.73
82858;BME280;72620;47.774;9.620;2024-01-25T03:15:30;97533.44;;;8.59;92.72
82858;BME280;72620;47.774;9.620;2024-01-25T03:17:57;97532.41;;;8.61;92.69
82858;BME280;72620;47.774;9.620;2024-01-25T03:20:24;97532.41;;;8.61;92.69
82858;BME280;72620;47.774;9.620;2024-01-25T03:22:51;97541.81;;;8.61;92.76
82858;BME280;72620;47.774;9.620;2024-01-25T03:25:18;97541.81;;;8.61;92.76
82858;BME280;72620;47.774;9.620;2024-01-25T03:27:46;97550.56;;;8.58;92.92
82858;BME280;72620;47.774;9.620;2024-01-25T03:30:13;97539.00;;;8.53;92.86
82858;BME280;72620;47.774;9.620;2024-01-25T03:32:40;97539.00;;;8.53;92.86
82858;BME280;72620;47.774;9.620;2024-01-25T03:35:07;97528.97;;;8.50;92.98
82858;BME280;72620;47.774;9.620;2024-01-25T03:37:35;97535.53;;;8.54;92.93
82858;BME280;72620;47.774;9.620;2024-01-25T03:40:02;97531.13;;;8.56;92.72
82858;BME280;72620;47.774;9.620;2024-01-25T03:42:30;97545.31;;;8.60;93.03
82858;BME280;72620;47.774;9.620;2024-01-25T03:44:57;97542.97;;;8.57;93.46
82858;BME280;72620;47.774;9.620;2024-01-25T03:47:24;97542.97;;;8.57;93.46
82858;BME280;72620;47.774;9.620;2024-01-25T03:49:52;97542.78;;;8.47;93.19
82858;BME280;72620;47.774;9.620;2024-01-25T03:52:19;97547.13;;;8.47;93.71
82858;BME280;72620;47.774;9.620;2024-01-25T03:54:46;97542.78;;;8.47;93.45
82858;BME280;72620;47.774;9.620;2024-01-25T03:57:13;97546.16;;;8.48;93.11
82858;BME280;72620;47.774;9.620;2024-01-25T03:59:40;97546.16;;;8.48;93.11
82858;BME280;72620;47.774;9.620;2024-01-25T04:02:07;97548.53;;;8.51;93.11
82858;BME280;72620;47.774;9.620;2024-01-25T04:04:36;97549.66;;;8.47;93.16
82858;BME280;72620;47.774;9.620;2024-01-25T04:07:03;97549.66;;;8.47;93.16
82858;BME280;72620;47.774;9.620;2024-01-25T04:09:30;97537.28;;;8.41;92.91
82858;BME280;72620;47.774;9.620;2024-01-25T04:11:57;97531.97;;;8.44;92.94
82858;BME280;72620;47.774;9.620;2024-01-25T04:14:24;97531.97;;;8.44;92.94
82858;BME280;72620;47.774;9.620;2024-01-25T04:16:51;97524.50;;;8.41;93.03
82858;BME280;72620;47.774;9.620;2024-01-25T04:19:18;97527.06;;;8.41;92.95
82858;BME280;72620;47.774;9.620;2024-01-25T04:21:45;97545.34;;;8.47;92.68
82858;BME280;72620;47.774;9.620;2024-01-25T04:24:12;97531.97;;;8.44;92.80
82858;BME280;72620;47.774;9.620;2024-01-25T04:26:39;97543.84;;;8.45;93.01
82858;BME280;72620;47.774;9.620;2024-01-25T04:29:06;97543.84;;;8.45;93.01
82858;BME280;72620;47.774;9.620;2024-01-25T04:31:33;97543.03;;;8.44;92.33
82858;BME280;72620;47.774;9.620;2024-01-25T04:34:00;97553.84;;;8.48;92.77
82858;BME280;72620;47.774;9.620;2024-01-25T04:36:28;97553.75;;;8.49;92.45
82858;BME280;72620;47.774;9.620;2024-01-25T04:38:55;97551.09;;;8.51;92.08
82858;BME280;72620;47.774;9.620;2024-01-25T04:41:22;97551.09;;;8.51;92.08
82858;BME280;72620;47.774;9.620;2024-01-25T04:43:49;97547.31;;;8.44;92.36
82858;BME280;72620;47.774;9.620;2024-01-25T04:46:16;97560.09;;;8.44;91.60
82858;BME280;72620;47.774;9.620;2024-01-25T04:48:43;97568.81;;;8.41;91.65
82858;BME280;72620;47.774;9.620;2024-01-25T04:51:17;97568.81;;;8.41;91.65
82858;BME280;72620;47.774;9.620;2024-01-25T04:53:46;97564.31;;;8.32;92.08
82858;BME280;72620;47.774;9.620;2024-01-25T04:56:13;97571.41;;;8.29;91.93
82858;BME280;72620;47.774;9.620;2024-01-25T04:58:40;97571.41;;;8.29;91.93
82858;BME280;72620;47.774;9.620;2024-01-25T05:01:07;97565.03;;;8.22;92.59
82858;BME280;72620;47.774;9.620;2024-01-25T05:03:35;97568.94;;;8.15;92.71
82858;BME280;72620;47.774;9.620;2024-01-25T05:06:03;97574.97;;;8.14;92.64
82858;BME280;72620;47.774;9.620;2024-01-25T05:08:31;97586.44;;;8.08;93.43
82858;BME280;72620;47.774;9.620;2024-01-25T05:10:58;97586.44;;;8.08;93.43
82858;BME280;72620;47.774;9.620;2024-01-25T05:13:25;97587.63;;;8.02;92.70
82858;BME280;72620;47.774;9.620;2024-01-25T05:15:52;97587.63;;;8.02;92.70
82858;BME280;72620;47.774;9.620;2024-01-25T05:18:19;97585.09;;;8.02;93.42
82858;BME280;72620;47.774;9.620;2024-01-25T05:20:46;97592.75;;;8.02;93.10
82858;BME280;72620;47.774;9.620;2024-01-25T05:23:13;97593.56;;;8.03;93.68
82858;BME280;72620;47.774;9.620;2024-01-25T05:25:40;97593.56;;;8.03;93.68
82858;BME280;72620;47.774;9.620;2024-01-25T05:28:07;97591.31;;;7.98;93.72
82858;BME280;72620;47.774;9.620;2024-01-25T05:30:35;97579.47;;;7.97;93.39
82858;BME280;72620;47.774;9.620;2024-01-25T05:33:03;97582.75;;;7.99;93.91
82858;BME280;72620;47.774;9.620;2024-01-25T05:35:30;97593.88;;;7.98;93.75
82858;BME280;72620;47.774;9.620;2024-01-25T05:37:57;97602.28;;;8.00;93.75
82858;BME280;72620;47.774;9.620;2024-01-25T05:40:24;97600.84;;;7.96;93.03
82858;BME280;72620;47.774;9.620;2024-01-25T05:42:52;97601.66;;;7.97;93.27
82858;BME280;72620;47.774;9.620;2024-01-25T05:45:21;97599.22;;;7.95;93.85
82858;BME280;72620;47.774;9.620;2024-01-25T05:47:50;97608.63;;;7.95;93.78
82858;BME280;72620;47.774;9.620;2024-01-25T05:50:19;97610.06;;;7.99;93.90
82858;BME280;72620;47.774;9.620;2024-01-25T05:52:57;97610.06;;;7.99;93.90
82858;BME280;72620;47.774;9.620;2024-01-25T05:55:24;97611.19;;;7.95;93.50
82858;BME280;72620;47.774;9.620;2024-01-25T05:57:51;97628.78;;;7.99;93.54
82858;BME280;72620;47.774;9.620;2024-01-25T06:00:19;97632.22;;;7.98;93.18
82858;BME280;72620;47.774;9.620;2024-01-25T06:02:47;97632.22;;;7.98;93.18
82858;BME280;72620;47.774;9.620;2024-01-25T06:05:14;97640.22;;;7.94;93.43
82858;BME280;72620;47.774;9.620;2024-01-25T06:07:42;97640.22;;;7.94;93.43
82858;BME280;72620;47.774;9.620;2024-01-25T06:10:10;97636.22;;;7.90;93.41
82858;BME280;72620;47.774;9.620;2024-01-25T06:12:39;97639.59;;;7.90;93.94
82858;BME280;72620;47.774;9.620;2024-01-25T06:15:06;97640.13;;;7.95;93.45
82858;BME280;72620;47.774;9.620;2024-01-25T06:17:34;97640.13;;;7.95;93.45
82858;BME280;72620;47.774;9.620;2024-01-25T06:20:12;97633.16;;;7.85;93.36
82858;BME280;72620;47.774;9.620;2024-01-25T06:22:39;97640.03;;;7.84;93.09
82858;BME280;72620;47.774;9.620;2024-01-25T06:25:06;97638.47;;;7.82;93.61
82858;BME280;72620;47.774;9.620;2024-01-25T06:27:34;97650.34;;;7.95;93.85
82858;BME280;72620;47.774;9.620;2024-01-25T06:30:02;97646.16;;;7.94;93.60
82858;BME280;72620;47.774;9.620;2024-01-25T06:32:29;97646.16;;;7.94;93.60
82858;BME280;72620;47.774;9.620;2024-01-25T06:34:59;97640.63;;;7.88;93.67
82858;BME280;72620;47.774;9.620;2024-01-25T06:37:26;97649.72;;;7.92;93.71
82858;BME280;72620;47.774;9.620;2024-01-25T06:39:54;97649.72;;;7.92;93.71
82858;BME280;72620;47.774;9.620;2024-01-25T06:42:21;97659.34;;;7.88;93.62
82858;BME280;72620;47.774;9.620;2024-01-25T06:44:48;97657.91;;;7.84;94.29
82858;BME280;72620;47.774;9.620;2024-01-25T06:47:15;97661.19;;;7.86;93.48
82858;BME280;72620;47.774;9.620;2024-01-25T06:49:44;97665.28;;;7.89;92.91
82858;BME280;72620;47.774;9.620;2024-01-25T06:52:15;97664.34;;;7.90;92.98
82858;BME280;72620;47.774;9.620;2024-01-25T06:54:42;97664.34;;;7.90;92.98
82858;BME280;72620;47.774;9.620;2024-01-25T06:57:10;97658.00;;;7.83;93.33
82858;BME280;72620;47.774;9.620;2024-01-25T06:59:37;97672.94;;;7.89;93.03
82858;BME280;72620;47.774;9.620;2024-01-25T07:02:05;97672.94;;;7.89;93.03
82858;BME280;72620;47.774;9.620;2024-01-25T07:04:32;97675.47;;;7.76;93.64
82858;BME280;72620;47.774;9.620;2024-01-25T07:07:00;97691.44;;;7.80;93.37
82858;BME280;72620;47.774;9.620;2024-01-25T07:09:27;97692.94;;;7.82;92.85
82858;BME280;72620;47.774;9.620;2024-01-25T07:11:54;97684.19;;;7.86;93.13
82858;BME280;72620;47.774;9.620;2024-01-25T07:14:21;97684.19;;;7.86;93.13
82858;BME280;72620;47.774;9.620;2024-01-25T07:16:48;97685.09;;;7.85;92.73
82858;BME280;72620;47.774;9.620;2024-01-25T07:19:15;97686.53;;;7.89;92.92
82858;BME280;72620;47.774;9.620;2024-01-25T07:21:43;97708.81;;;7.87;92.45
82858;BME280;72620;47.774;9.620;2024-01-25T07:24:12;97708.81;;;7.87;92.45
82858;BME280;72620;47.774;9.620;2024-01-25T07:26:39;97709.22;;;7.81;92.96
82858;BME280;72620;47.774;9.620;2024-01-25T07:29:06;97710.66;;;7.85;92.62
82858;BME280;72620;47.774;9.620;2024-01-25T07:31:33;97716.41;;;7.89;92.35
82858;BME280;72620;47.774;9.620;2024-01-25T07:34:00;97716.41;;;7.89;92.35
82858;BME280;72620;47.774;9.620;2024-01-25T07:36:27;97709.63;;;7.88;92.67
82858;BME280;72620;47.774;9.620;2024-01-25T07:38:54;97709.63;;;7.88;92.44
82858;BME280;72620;47.774;9.620;2024-01-25T07:41:21;97713.75;;;7.90;92.59
82858;BME280;72620;47.774;9.620;2024-01-25T07:43:49;97720.56;;;7.90;92.72
82858;BME280;72620;47.774;9.620;2024-01-25T07:46:16;97720.56;;;7.90;92.72
82858;BME280;72620;47.774;9.620;2024-01-25T07:48:43;97712.59;;;7.82;92.92
82858;BME280;72620;47.774;9.620;2024-01-25T07:51:12;97716.16;;;7.79;92.94
82858;BME280;72620;47.774;9.620;2024-01-25T07:53:42;97715.22;;;7.80;92.79
82858;BME280;72620;47.774;9.620;2024-01-25T07:56:10;97715.22;;;7.80;92.79
82858;BME280;72620;47.774;9.620;2024-01-25T07:58:37;97719.34;;;7.83;93.08
82858;BME280;72620;47.774;9.620;2024-01-25T08:01:05;97713.22;;;7.85;92.28
82858;BME280;72620;47.774;9.620;2024-01-25T08:03:36;97720.69;;;7.88;92.37
82858;BME280;72620;47.774;9.620;2024-01-25T08:06:04;97717.00;;;7.92;91.99
82858;BME280;72620;47.774;9.620;2024-01-25T08:08:31;97717.00;;;7.92;91.99
82858;BME280;72620;47.774;9.620;2024-01-25T08:10:58;97716.22;;;8.04;92.39
82858;BME280;72620;47.774;9.620;2024-01-25T08:13:26;97709.34;;;8.05;92.04
82858;BME280;72620;47.774;9.620;2024-01-25T08:15:59;97715.00;;;8.10;91.79
82858;BME280;72620;47.774;9.620;2024-01-25T08:18:26;97717.06;;;8.18;91.29
82858;BME280;72620;47.774;9.620;2024-01-25T08:20:57;97704.03;;;8.21;91.51
82858;BME280;72620;47.774;9.620;2024-01-25T08:23:25;97704.59;;;8.26;91.58
82858;BME280;72620;47.774;9.620;2024-01-25T08:25:52;97702.03;;;8.26;90.54
82858;BME280;72620;47.774;9.620;2024-01-25T08:28:19;97703.75;;;8.25;91.46
82858;BME280;72620;47.774;9.620;2024-01-25T08:30:46;97707.03;;;8.27;91.28
82858;BME280;72620;47.774;9.620;2024-01-25T08:33:14;97704.59;;;8.26;90.85
82858;BME280;72620;47.774;9.620;2024-01-25T08:35:41;97704.50;;;8.27;91.28
82858;BME280;72620;47.774;9.620;2024-01-25T08:38:09;97717.38;;;8.26;89.54
82858;BME280;72620;47.774;9.620;2024-01-25T08:40:36;97713.97;;;8.25;89.76
82858;BME280;72620;47.774;9.620;2024-01-25T08:43:03;97703.69;;;8.27;89.54
82858;BME280;72620;47.774;9.620;2024-01-25T08:45:31;97700.91;;;8.30;89.29
82858;BME280;72620;47.774;9.620;2024-01-25T08:47:59;97703.16;;;8.34;89.35
82858;BME280;72620;47.774;9.620;2024-01-25T08:50:27;97708.19;;;8.36;89.47
82858;BME280;72620;47.774;9.620;2024-01-25T08:52:54;97713.81;;;8.41;89.11
82858;BME280;72620;47.774;9.620;2024-01-25T08:55:21;97712.91;;;8.42;90.21
82858;BME280;72620;47.774;9.620;2024-01-25T08:57:49;97724.16;;;8.39;91.00
82858;BME280;72620;47.774;9.620;2024-01-25T09:00:16;97725.56;;;8.43;90.61
82858;BME280;72620;47.774;9.620;2024-01-25T09:02:45;97715.97;;;8.47;90.11
82858;BME280;72620;47.774;9.620;2024-01-25T09:05:12;97728.66;;;8.48;91.56
82858;BME280;72620;47.774;9.620;2024-01-25T09:07:40;97724.16;;;8.52;89.36
82858;BME280;72620;47.774;9.620;2024-01-25T09:10:08;97731.75;;;8.53;90.52
82858;BME280;72620;47.774;9.620;2024-01-25T09:12:37;97731.50;;;8.56;90.47
82858;BME280;72620;47.774;9.620;2024-01-25T09:15:06;97746.56;;;8.61;90.82
82858;BME280;72620;47.774;9.620;2024-01-25T09:17:35;97748.00;;;8.65;89.84
82858;BME280;72620;47.774;9.620;2024-01-25T09:20:03;97747.59;;;8.71;89.66
82858;BME280;72620;47.774;9.620;2024-01-25T09:22:31;97737.34;;;8.71;89.50
82858;BME280;72620;47.774;9.620;2024-01-25T09:24:58;97741.66;;;8.70;89.47
82858;BME280;72620;47.774;9.620;2024-01-25T09:27:25;97739.72;;;8.74;89.58
82858;BME280;72620;47.774;9.620;2024-01-25T09:29:53;97741.34;;;8.75;89.54
82858;BME280;72620;47.774;9.620;2024-01-25T09:32:20;97741.34;;;8.75;89.54
82858;BME280;72620;47.774;9.620;2024-01-25T09:34:47;97733.66;;;8.75;89.56
82858;BME280;72620;47.774;9.620;2024-01-25T09:37:15;97740.03;;;8.69;90.26
82858;BME280;72620;47.774;9.620;2024-01-25T09:39:44;97743.59;;;8.67;89.97
82858;BME280;72620;47.774;9.620;2024-01-25T09:42:11;97753.44;;;8.73;89.35
82858;BME280;72620;47.774;9.620;2024-01-25T09:44:40;97751.47;;;8.76;89.18
82858;BME280;72620;47.774;9.620;2024-01-25T09:47:10;97750.97;;;8.84;88.55
82858;BME280;72620;47.774;9.620;2024-01-25T09:49:38;97735.78;;;8.81;88.12
82858;BME280;72620;47.774;9.620;2024-01-25T09:52:12;97739.41;;;8.79;88.00
82858;BME280;72620;47.774;9.620;2024-01-25T09:54:40;97750.06;;;8.85;88.74
82858;BME280;72620;47.774;9.620;2024-01-25T09:57:28;97749.53;;;8.80;89.17
82858;BME280;72620;47.774;9.620;2024-01-25T09:59:56;97758.13;;;8.79;89.35
82858;BME280;72620;47.774;9.620;2024-01-25T10:02:23;97763.03;;;8.82;88.88
82858;BME280;72620;47.774;9.620;2024-01-25T10:04:51;97758.31;;;8.89;88.30
82858;BME280;72620;47.774;9.620;2024-01-25T10:07:42;97764.78;;;8.94;89.04
82858;BME280;72620;47.774;9.620;2024-01-25T10:10:12;97753.41;;;8.98;87.63
82858;BME280;72620;47.774;9.620;2024-01-25T10:12:41;97765.34;;;9.10;86.02
82858;BME280;72620;47.774;9.620;2024-01-25T10:15:10;97759.72;;;9.18;86.04
82858;BME280;72620;47.774;9.620;2024-01-25T10:17:39;97763.63;;;9.23;87.04
82858;BME280;72620;47.774;9.620;2024-01-25T10:20:26;97754.56;;;9.30;86.51
82858;BME280;72620;47.774;9.620;2024-01-25T10:22:58;97754.22;;;9.35;85.65
82858;BME280;72620;47.774;9.620;2024-01-25T10:25:26;97768.50;;;9.39;86.52
82858;BME280;72620;47.774;9.620;2024-01-25T10:27:54;97766.56;;;9.30;85.42
82858;BME280;72620;47.774;9.620;2024-01-25T10:30:35;97760.31;;;9.21;86.26
82858;BME280;72620;47.774;9.620;2024-01-25T10:33:03;97756.56;;;9.14;87.18
82858;BME280;72620;47.774;9.620;2024-01-25T10:35:32;97750.50;;;9.15;87.41
82858;BME280;72620;47.774;9.620;2024-01-25T10:38:00;97752.84;;;9.18;86.73
82858;BME280;72620;47.774;9.620;2024-01-25T10:40:29;97752.84;;;9.18;86.73
82858;BME280;72620;47.774;9.620;2024-01-25T10:42:56;97732.56;;;9.15;86.73
82858;BME280;72620;47.774;9.620;2024-01-25T10:45:24;97741.28;;;9.13;88.04
82858;BME280;72620;47.774;9.620;2024-01-25T10:47:51;97724.88;;;9.28;88.03
82858;BME280;72620;47.774;9.620;2024-01-25T10:50:19;97727.31;;;9.53;86.50
82858;BME280;72620;47.774;9.620;2024-01-25T10:52:47;97724.16;;;9.73;86.85
82858;BME280;72620;47.774;9.620;2024-01-25T10:55:16;97725.25;;;9.82;83.75
82858;BME280;72620;47.774;9.620;2024-01-25T10:57:45;97731.88;;;9.84;83.76
82858;BME280;72620;47.774;9.620;2024-01-25T11:00:15;97726.66;;;9.86;86.20
82858;BME280;72620;47.774;9.620;2024-01-25T11:02:45;97726.66;;;9.86;86.20
82858;BME280;72620;47.774;9.620;2024-01-25T11:05:17;97719.47;;;9.67;86.30
82858;BME280;72620;47.774;9.620;2024-01-25T11:07:48;97730.63;;;9.66;86.02
82858;BME280;72620;47.774;9.620;2024-01-25T11:10:18;97724.41;;;9.58;84.31
82858;BME280;72620;47.774;9.620;2024-01-25T11:13:00;97715.00;;;9.58;85.72
82858;BME280;72620;47.774;9.620;2024-01-25T11:15:35;97711.19;;;9.64;86.50
82858;BME280;72620;47.774;9.620;2024-01-25T11:18:07;97710.53;;;9.73;86.48
82858;BME280;72620;47.774;9.620;2024-01-25T11:20:36;97707.34;;;9.69;85.39
82858;BME280;72620;47.774;9.620;2024-01-25T11:23:05;97699.41;;;9.61;85.56
82858;BME280;72620;47.774;9.620;2024-01-25T11:25:35;97704.63;;;9.60;84.41
82858;BME280;72620;47.774;9.620;2024-01-25T11:28:05;97702.44;;;9.66;85.32
82858;BME280;72620;47.774;9.620;2024-01-25T11:30:34;97701.03;;;9.86;85.00
82858;BME280;72620;47.774;9.620;2024-01-25T11:33:09;97700.06;;;9.87;83.48
82858;BME280;72620;47.774;9.620;2024-01-25T11:35:37;97693.38;;;9.73;84.25
82858;BME280;72620;47.774;9.620;2024-01-25T11:38:05;97690.94;;;9.72;85.75
82858;BME280;72620;47.774;9.620;2024-01-25T11:40:32;97688.75;;;9.78;84.72
82858;BME280;72620;47.774;9.620;2024-01-25T11:43:05;97682.94;;;9.87;84.53
82858;BME280;72620;47.774;9.620;2024-01-25T11:45:38;97680.56;;;9.73;85.77
82858;BME280;72620;47.774;9.620;2024-01-25T11:48:10;97679.53;;;9.76;85.88
82858;BME280;72620;47.774;9.620;2024-01-25T11:50:38;97674.88;;;9.81;85.37
82858;BME280;72620;47.774;9.620;2024-01-25T11:53:05;97676.16;;;9.86;86.29
82858;BME280;72620;47.774;9.620;2024-01-25T11:55:33;97672.91;;;9.84;85.40
82858;BME280;72620;47.774;9.620;2024-01-25T11:58:00;97664.63;;;9.81;85.54
82858;BME280;72620;47.774;9.620;2024-01-25T12:00:28;97667.53;;;9.76;84.89
82858;BME280;72620;47.774;9.620;2024-01-25T12:02:56;97667.97;;;9.70;85.62
82858;BME280;72620;47.774;9.620;2024-01-25T12:05:23;97664.47;;;9.71;86.30
82858;BME280;72620;47.774;9.620;2024-01-25T12:07:51;97664.47;;;9.71;86.30
82858;BME280;72620;47.774;9.620;2024-01-25T12:10:18;97658.31;;;9.74;85.12
82858;BME280;72620;47.774;9.620;2024-01-25T12:12:48;97659.47;;;9.70;85.32
82858;BME280;72620;47.774;9.620;2024-01-25T12:15:15;97658.81;;;9.55;86.45
82858;BME280;72620;47.774;9.620;2024-01-25T12:17:42;97660.13;;;9.61;87.63
82858;BME280;72620;47.774;9.620;2024-01-25T12:20:11;97653.81;;;9.54;86.81
82858;BME280;72620;47.774;9.620;2024-01-25T12:22:39;97647.69;;;9.67;86.38
82858;BME280;72620;47.774;9.620;2024-01-25T12:25:09;97646.66;;;9.70;85.39
82858;BME280;72620;47.774;9.620;2024-01-25T12:27:39;97642.72;;;9.77;85.47
82858;BME280;72620;47.774;9.620;2024-01-25T12:30:08;97642.97;;;9.85;85.97
82858;BME280;72620;47.774;9.620;2024-01-25T12:32:36;97638.78;;;9.84;85.86
82858;BME280;72620;47.774;9.620;2024-01-25T12:35:03;97628.28;;;9.87;86.17
82858;BME280;72620;47.774;9.620;2024-01-25T12:37:31;97636.81;;;9.98;84.95
82858;BME280;72620;47.774;9.620;2024-01-25T12:39:59;97627.94;;;10.02;85.47
82858;BME280;72620;47.774;9.620;2024-01-25T12:42:26;97627.94;;;10.02;85.47
82858;BME280;72620;47.774;9.620;2024-01-25T12:44:54;97621.97;;;9.80;86.63
82858;BME280;72620;47.774;9.620;2024-01-25T12:47:21;97631.38;;;9.68;87.68
82858;BME280;72620;47.774;9.620;2024-01-25T12:49:49;97629.38;;;9.61;86.94
82858;BME280;72620;47.774;9.620;2024-01-25T12:52:16;97627.47;;;9.52;87.77
82858;BME280;72620;47.774;9.620;2024-01-25T12:54:44;97627.94;;;9.45;87.58
82858;BME280;72620;47.774;9.620;2024-01-25T12:57:11;97630.50;;;9.45;87.61
82858;BME280;72620;47.774;9.620;2024-01-25T12:59:38;97623.06;;;9.54;87.30
82858;BME280;72620;47.774;9.620;2024-01-25T13:02:07;97623.94;;;9.41;87.69
82858;BME280;72620;47.774;9.620;2024-01-25T13:04:35;97623.69;;;9.33;87.75
82858;BME280;72620;47.774;9.620;2024-01-25T13:07:03;97631.47;;;9.32;88.27
82858;BME280;72620;47.774;9.620;2024-01-25T13:09:30;97628.22;;;9.30;88.61
82858;BME280;72620;47.774;9.620;2024-01-25T13:12:00;97617.72;;;9.33;88.91
82858;BME280;72620;47.774;9.620;2024-01-25T13:14:28;97613.63;;;9.30;87.79